sensor_id;sensor_type;location;lat;lon;timestamp;P1;durP1;ratioP1;P2;durP2;ratioP2
13795;SDS011;40911;51.552;9.874;2023-05-07T00:01:52;23.50;;;16.65;;
13795;SDS011;40911;51.552;9.874;2023-05-07T00:04:13;24.25;;;18.02;;
13795;SDS011;40911;51.552;9.874;2023-05-07T00:08:57;25.92;;;18.05;;
13795;SDS011;40911;51.552;9.874;2023-05-07T00:11:20;26.67;;;18.27;;
13795;SDS011;40911;51.552;9.874;2023-05-07T00:13:42;27.70;;;19.25;;
13795;SDS011;40911;51.552;9.874;2023-05-07T00:16:04;28.95;;;20.13;;
13795;SDS011;40911;51.552;9.874;2023-05-07T00:18:26;28.40;;;18.75;;
13795;SDS011;40911;51.552;9.874;2023-05-07T00:20:47;27.30;;;19.23;;
13795;SDS011;40911;51.552;9.874;2023-05-07T00:23:09;27.00;;;19.48;;
13795;SDS011;40911;51.552;9.874;2023-05-07T00:25:30;30.27;;;20.52;;
13795;SDS011;40911;51.552;9.874;2023-05-07T00:27:53;29.75;;;20.25;;
13795;SDS011;40911;51.552;9.874;2023-05-07T00:30:15;26.90;;;18.98;;
13795;SDS011;40911;51.552;9.874;2023-05-07T00:34:59;25.10;;;18.23;;
13795;SDS011;40911;51.552;9.874;2023-05-07T00:39:42;30.60;;;20.05;;
13795;SDS011;40911;51.552;9.874;2023-05-07T00:42:03;31.02;;;20.35;;
13795;SDS011;40911;51.552;9.874;2023-05-07T00:46:48;29.67;;;20.15;;
13795;SDS011;40911;51.552;9.874;2023-05-07T00:49:10;28.73;;;21.08;;
13795;SDS011;40911;51.552;9.874;2023-05-07T00:51:32;31.15;;;20.45;;
13795;SDS011;40911;51.552;9.874;2023-05-07T00:53:54;32.50;;;21.67;;
13795;SDS011;40911;51.552;9.874;2023-05-07T00:58:38;30.17;;;20.48;;
13795;SDS011;40911;51.552;9.874;2023-05-07T01:01:01;28.30;;;20.25;;
13795;SDS011;40911;51.552;9.874;2023-05-07T01:03:23;30.77;;;20.98;;
13795;SDS011;40911;51.552;9.874;2023-05-07T01:05:45;32.17;;;20.70;;
13795;SDS011;40911;51.552;9.874;2023-05-07T01:08:09;29.08;;;20.55;;
13795;SDS011;40911;51.552;9.874;2023-05-07T01:10:31;30.77;;;20.88;;
13795;SDS011;40911;51.552;9.874;2023-05-07T01:12:53;30.38;;;20.02;;
13795;SDS011;40911;51.552;9.874;2023-05-07T01:17:39;30.42;;;19.67;;
13795;SDS011;40911;51.552;9.874;2023-05-07T01:20:04;31.75;;;20.52;;
13795;SDS011;40911;51.552;9.874;2023-05-07T01:22:30;31.33;;;20.40;;
13795;SDS011;40911;51.552;9.874;2023-05-07T01:24:52;29.35;;;20.55;;
13795;SDS011;40911;51.552;9.874;2023-05-07T01:27:16;30.40;;;20.20;;
13795;SDS011;40911;51.552;9.874;2023-05-07T01:29:37;33.15;;;20.65;;
13795;SDS011;40911;51.552;9.874;2023-05-07T01:32:00;31.42;;;20.35;;
13795;SDS011;40911;51.552;9.874;2023-05-07T01:34:22;28.80;;;19.90;;
13795;SDS011;40911;51.552;9.874;2023-05-07T01:36:46;27.05;;;18.67;;
13795;SDS011;40911;51.552;9.874;2023-05-07T01:39:09;31.05;;;21.20;;
13795;SDS011;40911;51.552;9.874;2023-05-07T01:41:31;35.75;;;20.73;;
13795;SDS011;40911;51.552;9.874;2023-05-07T01:43:53;31.23;;;21.05;;
13795;SDS011;40911;51.552;9.874;2023-05-07T01:46:15;31.50;;;20.05;;
13795;SDS011;40911;51.552;9.874;2023-05-07T01:48:38;31.75;;;20.08;;
13795;SDS011;40911;51.552;9.874;2023-05-07T01:51:00;33.92;;;20.50;;
13795;SDS011;40911;51.552;9.874;2023-05-07T01:53:23;32.13;;;20.77;;
13795;SDS011;40911;51.552;9.874;2023-05-07T01:55:46;26.25;;;19.80;;
13795;SDS011;40911;51.552;9.874;2023-05-07T01:58:07;27.67;;;18.65;;
13795;SDS011;40911;51.552;9.874;2023-05-07T02:00:29;29.83;;;19.90;;
13795;SDS011;40911;51.552;9.874;2023-05-07T02:02:51;29.83;;;19.38;;
13795;SDS011;40911;51.552;9.874;2023-05-07T02:05:12;29.75;;;20.00;;
13795;SDS011;40911;51.552;9.874;2023-05-07T02:07:34;28.50;;;19.08;;
13795;SDS011;40911;51.552;9.874;2023-05-07T02:09:56;27.67;;;19.27;;
13795;SDS011;40911;51.552;9.874;2023-05-07T02:12:19;26.92;;;18.70;;
13795;SDS011;40911;51.552;9.874;2023-05-07T02:14:40;29.08;;;18.73;;
13795;SDS011;40911;51.552;9.874;2023-05-07T02:17:02;28.65;;;19.15;;
13795;SDS011;40911;51.552;9.874;2023-05-07T02:22:33;27.42;;;18.15;;
13795;SDS011;40911;51.552;9.874;2023-05-07T02:24:54;27.30;;;18.48;;
13795;SDS011;40911;51.552;9.874;2023-05-07T02:27:16;25.38;;;17.80;;
13795;SDS011;40911;51.552;9.874;2023-05-07T02:29:39;28.10;;;18.25;;
13795;SDS011;40911;51.552;9.874;2023-05-07T02:32:01;25.80;;;19.02;;
13795;SDS011;40911;51.552;9.874;2023-05-07T02:34:22;25.20;;;18.33;;
13795;SDS011;40911;51.552;9.874;2023-05-07T02:36:44;26.98;;;18.05;;
13795;SDS011;40911;51.552;9.874;2023-05-07T02:41:27;28.45;;;17.02;;
13795;SDS011;40911;51.552;9.874;2023-05-07T02:46:11;23.33;;;16.23;;
13795;SDS011;40911;51.552;9.874;2023-05-07T02:48:33;23.63;;;16.92;;
13795;SDS011;40911;51.552;9.874;2023-05-07T02:50:55;22.83;;;16.33;;
13795;SDS011;40911;51.552;9.874;2023-05-07T02:53:17;27.98;;;17.58;;
13795;SDS011;40911;51.552;9.874;2023-05-07T02:55:38;21.98;;;15.77;;
13795;SDS011;40911;51.552;9.874;2023-05-07T02:58:00;25.05;;;16.52;;
13795;SDS011;40911;51.552;9.874;2023-05-07T03:00:22;23.08;;;16.08;;
13795;SDS011;40911;51.552;9.874;2023-05-07T03:02:45;23.40;;;16.40;;
13795;SDS011;40911;51.552;9.874;2023-05-07T03:05:07;21.17;;;16.17;;
13795;SDS011;40911;51.552;9.874;2023-05-07T03:07:29;23.23;;;16.17;;
13795;SDS011;40911;51.552;9.874;2023-05-07T03:09:50;20.27;;;15.60;;
13795;SDS011;40911;51.552;9.874;2023-05-07T03:12:12;23.38;;;16.77;;
13795;SDS011;40911;51.552;9.874;2023-05-07T03:14:34;26.98;;;17.92;;
13795;SDS011;40911;51.552;9.874;2023-05-07T03:16:55;28.15;;;17.95;;
13795;SDS011;40911;51.552;9.874;2023-05-07T03:19:18;26.00;;;17.73;;
13795;SDS011;40911;51.552;9.874;2023-05-07T03:21:40;23.67;;;17.30;;
13795;SDS011;40911;51.552;9.874;2023-05-07T03:24:01;24.95;;;17.08;;
13795;SDS011;40911;51.552;9.874;2023-05-07T03:26:23;26.92;;;17.38;;
13795;SDS011;40911;51.552;9.874;2023-05-07T03:28:45;24.17;;;17.08;;
13795;SDS011;40911;51.552;9.874;2023-05-07T03:31:07;25.23;;;17.00;;
13795;SDS011;40911;51.552;9.874;2023-05-07T03:33:28;24.85;;;16.90;;
13795;SDS011;40911;51.552;9.874;2023-05-07T03:35:51;22.08;;;16.13;;
13795;SDS011;40911;51.552;9.874;2023-05-07T03:38:13;20.95;;;15.52;;
13795;SDS011;40911;51.552;9.874;2023-05-07T03:40:34;22.48;;;16.65;;
13795;SDS011;40911;51.552;9.874;2023-05-07T03:45:18;23.42;;;15.45;;
13795;SDS011;40911;51.552;9.874;2023-05-07T03:47:39;21.70;;;15.85;;
13795;SDS011;40911;51.552;9.874;2023-05-07T03:50:01;22.27;;;16.30;;
13795;SDS011;40911;51.552;9.874;2023-05-07T03:52:24;21.75;;;16.20;;
13795;SDS011;40911;51.552;9.874;2023-05-07T03:54:46;22.90;;;16.10;;
13795;SDS011;40911;51.552;9.874;2023-05-07T03:57:07;22.48;;;17.02;;
13795;SDS011;40911;51.552;9.874;2023-05-07T03:59:29;25.05;;;17.58;;
13795;SDS011;40911;51.552;9.874;2023-05-07T04:01:50;25.52;;;17.27;;
13795;SDS011;40911;51.552;9.874;2023-05-07T04:04:12;25.73;;;17.63;;
13795;SDS011;40911;51.552;9.874;2023-05-07T04:06:34;24.85;;;17.55;;
13795;SDS011;40911;51.552;9.874;2023-05-07T04:08:57;25.00;;;17.30;;
13795;SDS011;40911;51.552;9.874;2023-05-07T04:11:18;22.85;;;16.17;;
13795;SDS011;40911;51.552;9.874;2023-05-07T04:16:01;22.48;;;15.68;;
13795;SDS011;40911;51.552;9.874;2023-05-07T04:18:24;22.25;;;16.27;;
13795;SDS011;40911;51.552;9.874;2023-05-07T04:20:45;24.38;;;16.02;;
13795;SDS011;40911;51.552;9.874;2023-05-07T04:23:07;22.25;;;16.27;;
13795;SDS011;40911;51.552;9.874;2023-05-07T04:25:30;21.80;;;16.08;;
13795;SDS011;40911;51.552;9.874;2023-05-07T04:27:52;20.58;;;15.60;;
13795;SDS011;40911;51.552;9.874;2023-05-07T04:30:14;22.30;;;15.55;;
13795;SDS011;40911;51.552;9.874;2023-05-07T04:34:57;23.00;;;14.88;;
13795;SDS011;40911;51.552;9.874;2023-05-07T04:37:19;22.35;;;15.10;;
13795;SDS011;40911;51.552;9.874;2023-05-07T04:39:40;20.55;;;15.32;;
13795;SDS011;40911;51.552;9.874;2023-05-07T04:42:03;20.98;;;14.35;;
13795;SDS011;40911;51.552;9.874;2023-05-07T04:44:27;21.08;;;15.07;;
13795;SDS011;40911;51.552;9.874;2023-05-07T04:46:51;18.75;;;14.35;;
13795;SDS011;40911;51.552;9.874;2023-05-07T04:49:12;24.02;;;15.05;;
13795;SDS011;40911;51.552;9.874;2023-05-07T04:51:34;22.50;;;14.93;;
13795;SDS011;40911;51.552;9.874;2023-05-07T04:53:56;21.58;;;14.73;;
13795;SDS011;40911;51.552;9.874;2023-05-07T04:56:17;24.92;;;15.45;;
13795;SDS011;40911;51.552;9.874;2023-05-07T04:58:40;20.98;;;14.20;;
13795;SDS011;40911;51.552;9.874;2023-05-07T05:01:02;19.95;;;14.60;;
13795;SDS011;40911;51.552;9.874;2023-05-07T05:03:24;22.20;;;14.55;;
13795;SDS011;40911;51.552;9.874;2023-05-07T05:05:46;22.42;;;14.95;;
13795;SDS011;40911;51.552;9.874;2023-05-07T05:08:10;20.85;;;14.10;;
13795;SDS011;40911;51.552;9.874;2023-05-07T05:12:53;21.20;;;13.18;;
13795;SDS011;40911;51.552;9.874;2023-05-07T05:15:16;19.02;;;13.45;;
13795;SDS011;40911;51.552;9.874;2023-05-07T05:17:37;23.63;;;14.57;;
13795;SDS011;40911;51.552;9.874;2023-05-07T05:19:59;18.70;;;13.38;;
13795;SDS011;40911;51.552;9.874;2023-05-07T05:22:21;22.85;;;14.43;;
13795;SDS011;40911;51.552;9.874;2023-05-07T05:24:43;19.55;;;12.95;;
13795;SDS011;40911;51.552;9.874;2023-05-07T05:27:04;19.55;;;13.18;;
13795;SDS011;40911;51.552;9.874;2023-05-07T05:31:49;20.33;;;13.38;;
13795;SDS011;40911;51.552;9.874;2023-05-07T05:34:10;21.88;;;13.70;;
13795;SDS011;40911;51.552;9.874;2023-05-07T05:36:32;21.85;;;14.25;;
13795;SDS011;40911;51.552;9.874;2023-05-07T05:38:54;21.42;;;14.43;;
13795;SDS011;40911;51.552;9.874;2023-05-07T05:41:16;22.65;;;14.25;;
13795;SDS011;40911;51.552;9.874;2023-05-07T05:43:38;21.08;;;14.10;;
13795;SDS011;40911;51.552;9.874;2023-05-07T05:45:59;21.23;;;13.35;;
13795;SDS011;40911;51.552;9.874;2023-05-07T05:50:44;19.95;;;13.27;;
13795;SDS011;40911;51.552;9.874;2023-05-07T05:53:06;22.13;;;13.43;;
13795;SDS011;40911;51.552;9.874;2023-05-07T05:55:27;24.27;;;13.82;;
13795;SDS011;40911;51.552;9.874;2023-05-07T06:00:11;25.20;;;14.13;;
13795;SDS011;40911;51.552;9.874;2023-05-07T06:02:33;24.55;;;13.82;;
13795;SDS011;40911;51.552;9.874;2023-05-07T06:04:56;23.50;;;14.40;;
13795;SDS011;40911;51.552;9.874;2023-05-07T06:07:18;25.60;;;14.75;;
13795;SDS011;40911;51.552;9.874;2023-05-07T06:09:40;22.15;;;13.50;;
13795;SDS011;40911;51.552;9.874;2023-05-07T06:12:01;23.30;;;14.00;;
13795;SDS011;40911;51.552;9.874;2023-05-07T06:14:23;23.38;;;14.25;;
13795;SDS011;40911;51.552;9.874;2023-05-07T06:16:44;23.25;;;14.98;;
13795;SDS011;40911;51.552;9.874;2023-05-07T06:19:06;21.20;;;14.10;;
13795;SDS011;40911;51.552;9.874;2023-05-07T06:23:51;20.13;;;12.90;;
13795;SDS011;40911;51.552;9.874;2023-05-07T06:26:14;20.80;;;13.98;;
13795;SDS011;40911;51.552;9.874;2023-05-07T06:28:36;20.88;;;13.57;;
13795;SDS011;40911;51.552;9.874;2023-05-07T06:31:10;20.08;;;13.25;;
13795;SDS011;40911;51.552;9.874;2023-05-07T06:33:32;18.45;;;13.10;;
13795;SDS011;40911;51.552;9.874;2023-05-07T06:35:54;18.77;;;12.52;;
13795;SDS011;40911;51.552;9.874;2023-05-07T06:40:38;21.55;;;13.27;;
13795;SDS011;40911;51.552;9.874;2023-05-07T06:43:00;19.00;;;12.60;;
13795;SDS011;40911;51.552;9.874;2023-05-07T06:45:21;19.00;;;12.98;;
13795;SDS011;40911;51.552;9.874;2023-05-07T06:47:44;21.70;;;13.90;;
13795;SDS011;40911;51.552;9.874;2023-05-07T06:50:06;17.30;;;12.68;;
13795;SDS011;40911;51.552;9.874;2023-05-07T06:52:29;19.88;;;13.15;;
13795;SDS011;40911;51.552;9.874;2023-05-07T06:54:52;18.75;;;12.85;;
13795;SDS011;40911;51.552;9.874;2023-05-07T06:57:14;19.50;;;12.68;;
13795;SDS011;40911;51.552;9.874;2023-05-07T06:59:35;16.90;;;12.15;;
13795;SDS011;40911;51.552;9.874;2023-05-07T07:04:19;16.52;;;11.68;;
13795;SDS011;40911;51.552;9.874;2023-05-07T07:06:42;16.95;;;12.02;;
13795;SDS011;40911;51.552;9.874;2023-05-07T07:09:04;13.80;;;10.55;;
13795;SDS011;40911;51.552;9.874;2023-05-07T07:11:27;15.77;;;11.45;;
13795;SDS011;40911;51.552;9.874;2023-05-07T07:13:48;16.45;;;11.57;;
13795;SDS011;40911;51.552;9.874;2023-05-07T07:16:10;17.27;;;11.13;;
13795;SDS011;40911;51.552;9.874;2023-05-07T07:18:32;14.43;;;10.75;;
13795;SDS011;40911;51.552;9.874;2023-05-07T07:20:53;16.20;;;11.40;;
13795;SDS011;40911;51.552;9.874;2023-05-07T07:23:15;13.65;;;10.27;;
13795;SDS011;40911;51.552;9.874;2023-05-07T07:25:37;12.25;;;10.00;;
13795;SDS011;40911;51.552;9.874;2023-05-07T07:28:00;13.00;;;9.40;;
13795;SDS011;40911;51.552;9.874;2023-05-07T07:30:21;13.80;;;9.38;;
13795;SDS011;40911;51.552;9.874;2023-05-07T07:35:05;13.98;;;9.07;;
13795;SDS011;40911;51.552;9.874;2023-05-07T07:37:27;13.45;;;9.32;;
13795;SDS011;40911;51.552;9.874;2023-05-07T07:39:49;12.05;;;9.07;;
13795;SDS011;40911;51.552;9.874;2023-05-07T07:42:11;14.15;;;8.63;;
13795;SDS011;40911;51.552;9.874;2023-05-07T07:46:55;11.18;;;8.43;;
13795;SDS011;40911;51.552;9.874;2023-05-07T07:49:17;13.60;;;9.48;;
13795;SDS011;40911;51.552;9.874;2023-05-07T07:51:40;11.50;;;8.20;;
13795;SDS011;40911;51.552;9.874;2023-05-07T07:54:02;11.18;;;8.43;;
13795;SDS011;40911;51.552;9.874;2023-05-07T07:56:25;11.13;;;8.20;;
13795;SDS011;40911;51.552;9.874;2023-05-07T07:58:47;10.75;;;7.88;;
13795;SDS011;40911;51.552;9.874;2023-05-07T08:03:32;10.07;;;6.97;;
13795;SDS011;40911;51.552;9.874;2023-05-07T08:05:55;11.77;;;8.00;;
13795;SDS011;40911;51.552;9.874;2023-05-07T08:08:17;9.10;;;7.47;;
13795;SDS011;40911;51.552;9.874;2023-05-07T08:10:39;12.88;;;7.97;;
13795;SDS011;40911;51.552;9.874;2023-05-07T08:13:01;10.77;;;8.05;;
13795;SDS011;40911;51.552;9.874;2023-05-07T08:15:23;11.88;;;8.65;;
13795;SDS011;40911;51.552;9.874;2023-05-07T08:17:46;11.32;;;8.30;;
13795;SDS011;40911;51.552;9.874;2023-05-07T08:20:08;15.10;;;9.73;;
13795;SDS011;40911;51.552;9.874;2023-05-07T08:22:30;14.48;;;9.98;;
13795;SDS011;40911;51.552;9.874;2023-05-07T08:24:52;15.10;;;11.30;;
13795;SDS011;40911;51.552;9.874;2023-05-07T08:27:14;16.58;;;10.75;;
13795;SDS011;40911;51.552;9.874;2023-05-07T08:29:36;15.02;;;10.07;;
13795;SDS011;40911;51.552;9.874;2023-05-07T08:31:57;16.45;;;12.38;;
13795;SDS011;40911;51.552;9.874;2023-05-07T08:36:43;12.57;;;8.75;;
13795;SDS011;40911;51.552;9.874;2023-05-07T08:39:07;11.85;;;8.40;;
13795;SDS011;40911;51.552;9.874;2023-05-07T08:43:50;13.27;;;7.78;;
13795;SDS011;40911;51.552;9.874;2023-05-07T08:46:13;10.15;;;8.13;;
13795;SDS011;40911;51.552;9.874;2023-05-07T08:48:38;11.27;;;7.80;;
13795;SDS011;40911;51.552;9.874;2023-05-07T08:51:03;9.70;;;7.53;;
13795;SDS011;40911;51.552;9.874;2023-05-07T08:53:24;10.93;;;7.60;;
13795;SDS011;40911;51.552;9.874;2023-05-07T08:55:46;11.27;;;7.88;;
13795;SDS011;40911;51.552;9.874;2023-05-07T08:58:09;10.85;;;7.70;;
13795;SDS011;40911;51.552;9.874;2023-05-07T09:00:31;13.63;;;8.10;;
13795;SDS011;40911;51.552;9.874;2023-05-07T09:02:53;10.18;;;7.38;;
13795;SDS011;40911;51.552;9.874;2023-05-07T09:07:38;12.70;;;7.03;;
13795;SDS011;40911;51.552;9.874;2023-05-07T09:10:01;9.80;;;7.40;;
13795;SDS011;40911;51.552;9.874;2023-05-07T09:12:24;10.55;;;7.28;;
13795;SDS011;40911;51.552;9.874;2023-05-07T09:17:07;10.07;;;7.40;;
13795;SDS011;40911;51.552;9.874;2023-05-07T09:19:29;10.38;;;7.93;;
13795;SDS011;40911;51.552;9.874;2023-05-07T09:21:57;9.63;;;7.85;;
13795;SDS011;40911;51.552;9.874;2023-05-07T09:24:20;10.82;;;7.65;;
13795;SDS011;40911;51.552;9.874;2023-05-07T09:26:42;9.43;;;7.85;;
13795;SDS011;40911;51.552;9.874;2023-05-07T09:29:04;10.52;;;8.48;;
13795;SDS011;40911;51.552;9.874;2023-05-07T09:31:25;10.50;;;7.88;;
13795;SDS011;40911;51.552;9.874;2023-05-07T09:33:47;11.70;;;7.85;;
13795;SDS011;40911;51.552;9.874;2023-05-07T09:38:31;23.85;;;13.00;;
13795;SDS011;40911;51.552;9.874;2023-05-07T09:41:02;11.48;;;9.05;;
13795;SDS011;40911;51.552;9.874;2023-05-07T09:45:47;12.43;;;9.30;;
13795;SDS011;40911;51.552;9.874;2023-05-07T09:48:11;11.13;;;9.25;;
13795;SDS011;40911;51.552;9.874;2023-05-07T09:50:40;13.60;;;9.57;;
13795;SDS011;40911;51.552;9.874;2023-05-07T09:53:09;17.40;;;10.80;;
13795;SDS011;40911;51.552;9.874;2023-05-07T09:55:31;11.50;;;9.63;;
13795;SDS011;40911;51.552;9.874;2023-05-07T09:57:54;12.57;;;9.52;;
13795;SDS011;40911;51.552;9.874;2023-05-07T10:00:16;11.63;;;9.73;;
13795;SDS011;40911;51.552;9.874;2023-05-07T10:02:41;14.52;;;10.45;;
13795;SDS011;40911;51.552;9.874;2023-05-07T10:05:08;14.75;;;10.88;;
13795;SDS011;40911;51.552;9.874;2023-05-07T10:07:30;14.88;;;10.77;;
13795;SDS011;40911;51.552;9.874;2023-05-07T10:14:37;14.98;;;11.25;;
13795;SDS011;40911;51.552;9.874;2023-05-07T10:17:01;16.58;;;10.82;;
13795;SDS011;40911;51.552;9.874;2023-05-07T10:19:53;15.30;;;11.45;;
13795;SDS011;40911;51.552;9.874;2023-05-07T10:27:18;17.67;;;12.13;;
13795;SDS011;40911;51.552;9.874;2023-05-07T10:29:30;16.60;;;12.13;;
13795;SDS011;40911;51.552;9.874;2023-05-07T10:31:59;16.75;;;12.90;;
13795;SDS011;40911;51.552;9.874;2023-05-07T10:34:37;17.50;;;12.95;;
13795;SDS011;40911;51.552;9.874;2023-05-07T10:37:03;17.55;;;13.00;;
13795;SDS011;40911;51.552;9.874;2023-05-07T10:39:27;18.58;;;13.77;;
13795;SDS011;40911;51.552;9.874;2023-05-07T10:42:39;17.50;;;13.73;;
13795;SDS011;40911;51.552;9.874;2023-05-07T10:45:14;20.58;;;14.18;;
13795;SDS011;40911;51.552;9.874;2023-05-07T10:47:38;17.98;;;14.05;;
13795;SDS011;40911;51.552;9.874;2023-05-07T10:50:32;18.77;;;14.27;;
13795;SDS011;40911;51.552;9.874;2023-05-07T10:55:49;18.40;;;13.73;;
13795;SDS011;40911;51.552;9.874;2023-05-07T10:58:24;17.75;;;13.48;;
13795;SDS011;40911;51.552;9.874;2023-05-07T11:00:47;16.95;;;14.18;;
13795;SDS011;40911;51.552;9.874;2023-05-07T11:03:10;18.13;;;14.23;;
13795;SDS011;40911;51.552;9.874;2023-05-07T11:05:32;19.00;;;14.43;;
13795;SDS011;40911;51.552;9.874;2023-05-07T11:07:55;18.67;;;15.15;;
13795;SDS011;40911;51.552;9.874;2023-05-07T11:10:17;20.08;;;15.32;;
13795;SDS011;40911;51.552;9.874;2023-05-07T11:15:13;18.77;;;14.90;;
13795;SDS011;40911;51.552;9.874;2023-05-07T11:17:51;18.40;;;14.38;;
13795;SDS011;40911;51.552;9.874;2023-05-07T11:20:15;17.77;;;14.10;;
13795;SDS011;40911;51.552;9.874;2023-05-07T11:22:37;19.52;;;14.73;;
13795;SDS011;40911;51.552;9.874;2023-05-07T11:25:01;18.25;;;14.30;;
13795;SDS011;40911;51.552;9.874;2023-05-07T11:27:23;21.08;;;15.52;;
13795;SDS011;40911;51.552;9.874;2023-05-07T11:29:46;18.30;;;14.35;;
13795;SDS011;40911;51.552;9.874;2023-05-07T11:32:08;21.73;;;15.60;;
13795;SDS011;40911;51.552;9.874;2023-05-07T11:34:30;18.50;;;15.85;;
13795;SDS011;40911;51.552;9.874;2023-05-07T11:36:54;20.25;;;15.82;;
13795;SDS011;40911;51.552;9.874;2023-05-07T11:39:23;20.88;;;16.48;;
13795;SDS011;40911;51.552;9.874;2023-05-07T11:41:45;21.42;;;16.13;;
13795;SDS011;40911;51.552;9.874;2023-05-07T11:44:07;22.48;;;16.48;;
13795;SDS011;40911;51.552;9.874;2023-05-07T11:48:50;21.25;;;15.68;;
13795;SDS011;40911;51.552;9.874;2023-05-07T11:51:12;18.88;;;15.30;;
13795;SDS011;40911;51.552;9.874;2023-05-07T11:53:37;20.10;;;15.77;;
13795;SDS011;40911;51.552;9.874;2023-05-07T11:56:00;21.15;;;16.35;;
13795;SDS011;40911;51.552;9.874;2023-05-07T11:58:27;20.63;;;17.05;;
13795;SDS011;40911;51.552;9.874;2023-05-07T12:00:49;21.73;;;15.55;;
13795;SDS011;40911;51.552;9.874;2023-05-07T12:03:14;19.60;;;15.73;;
13795;SDS011;40911;51.552;9.874;2023-05-07T12:05:46;18.30;;;15.60;;
13795;SDS011;40911;51.552;9.874;2023-05-07T12:08:08;18.02;;;14.75;;
13795;SDS011;40911;51.552;9.874;2023-05-07T12:10:36;19.17;;;15.15;;
13795;SDS011;40911;51.552;9.874;2023-05-07T12:13:02;19.98;;;15.55;;
13795;SDS011;40911;51.552;9.874;2023-05-07T12:15:32;18.88;;;15.32;;
13795;SDS011;40911;51.552;9.874;2023-05-07T12:17:56;20.67;;;16.00;;
13795;SDS011;40911;51.552;9.874;2023-05-07T12:20:21;20.10;;;15.55;;
13795;SDS011;40911;51.552;9.874;2023-05-07T12:22:45;20.17;;;15.27;;
13795;SDS011;40911;51.552;9.874;2023-05-07T12:25:13;18.50;;;15.30;;
13795;SDS011;40911;51.552;9.874;2023-05-07T12:27:42;19.60;;;15.80;;
13795;SDS011;40911;51.552;9.874;2023-05-07T12:30:05;21.10;;;15.10;;
13795;SDS011;40911;51.552;9.874;2023-05-07T12:32:27;21.75;;;15.90;;
13795;SDS011;40911;51.552;9.874;2023-05-07T12:34:50;18.88;;;14.95;;
13795;SDS011;40911;51.552;9.874;2023-05-07T12:37:12;16.15;;;13.43;;
13795;SDS011;40911;51.552;9.874;2023-05-07T12:39:34;18.75;;;13.95;;
13795;SDS011;40911;51.552;9.874;2023-05-07T12:41:56;19.50;;;14.98;;
13795;SDS011;40911;51.552;9.874;2023-05-07T12:44:22;17.55;;;14.50;;
13795;SDS011;40911;51.552;9.874;2023-05-07T12:46:46;16.65;;;14.23;;
13795;SDS011;40911;51.552;9.874;2023-05-07T12:49:08;16.42;;;13.90;;
13795;SDS011;40911;51.552;9.874;2023-05-07T12:51:30;17.80;;;13.85;;
13795;SDS011;40911;51.552;9.874;2023-05-07T12:53:51;16.42;;;14.25;;
13795;SDS011;40911;51.552;9.874;2023-05-07T12:56:17;15.85;;;13.38;;
13795;SDS011;40911;51.552;9.874;2023-05-07T12:58:40;16.30;;;13.80;;
13795;SDS011;40911;51.552;9.874;2023-05-07T13:03:27;18.13;;;12.98;;
13795;SDS011;40911;51.552;9.874;2023-05-07T13:05:50;16.50;;;13.38;;
13795;SDS011;40911;51.552;9.874;2023-05-07T13:08:12;15.93;;;13.68;;
13795;SDS011;40911;51.552;9.874;2023-05-07T13:10:44;15.95;;;14.27;;
13795;SDS011;40911;51.552;9.874;2023-05-07T13:15:27;14.65;;;12.85;;
13795;SDS011;40911;51.552;9.874;2023-05-07T13:20:12;14.13;;;12.63;;
13795;SDS011;40911;51.552;9.874;2023-05-07T13:22:34;14.60;;;12.82;;
13795;SDS011;40911;51.552;9.874;2023-05-07T13:27:17;15.45;;;12.45;;
13795;SDS011;40911;51.552;9.874;2023-05-07T13:29:39;15.77;;;12.15;;
13795;SDS011;40911;51.552;9.874;2023-05-07T13:34:23;16.35;;;14.43;;
13795;SDS011;40911;51.552;9.874;2023-05-07T13:36:45;14.23;;;12.27;;
13795;SDS011;40911;51.552;9.874;2023-05-07T13:41:29;14.65;;;11.48;;
13795;SDS011;40911;51.552;9.874;2023-05-07T13:43:50;13.13;;;11.73;;
13795;SDS011;40911;51.552;9.874;2023-05-07T13:48:34;12.20;;;10.85;;
13795;SDS011;40911;51.552;9.874;2023-05-07T13:53:18;12.55;;;11.02;;
13795;SDS011;40911;51.552;9.874;2023-05-07T13:58:02;11.90;;;10.60;;
13795;SDS011;40911;51.552;9.874;2023-05-07T14:00:24;11.82;;;10.48;;
13795;SDS011;40911;51.552;9.874;2023-05-07T14:02:46;12.73;;;10.93;;
13795;SDS011;40911;51.552;9.874;2023-05-07T14:07:31;11.57;;;10.38;;
13795;SDS011;40911;51.552;9.874;2023-05-07T14:09:53;11.45;;;9.55;;
13795;SDS011;40911;51.552;9.874;2023-05-07T14:12:15;12.40;;;10.25;;
13795;SDS011;40911;51.552;9.874;2023-05-07T14:16:58;12.23;;;10.52;;
13795;SDS011;40911;51.552;9.874;2023-05-07T14:19:20;12.23;;;10.95;;
13795;SDS011;40911;51.552;9.874;2023-05-07T14:21:42;12.15;;;10.70;;
13795;SDS011;40911;51.552;9.874;2023-05-07T14:24:06;12.73;;;10.98;;
13795;SDS011;40911;51.552;9.874;2023-05-07T14:26:28;14.13;;;10.65;;
13795;SDS011;40911;51.552;9.874;2023-05-07T14:28:50;13.07;;;11.23;;
13795;SDS011;40911;51.552;9.874;2023-05-07T14:33:33;11.57;;;10.38;;
13795;SDS011;40911;51.552;9.874;2023-05-07T14:38:16;11.40;;;10.07;;
13795;SDS011;40911;51.552;9.874;2023-05-07T14:43:01;11.98;;;10.77;;
13795;SDS011;40911;51.552;9.874;2023-05-07T14:45:22;14.07;;;10.05;;
13795;SDS011;40911;51.552;9.874;2023-05-07T14:47:44;11.48;;;10.38;;
13795;SDS011;40911;51.552;9.874;2023-05-07T14:52:27;11.70;;;10.35;;
13795;SDS011;40911;51.552;9.874;2023-05-07T14:54:49;11.38;;;10.18;;
13795;SDS011;40911;51.552;9.874;2023-05-07T14:59:36;10.73;;;9.52;;
13795;SDS011;40911;51.552;9.874;2023-05-07T15:01:59;10.70;;;9.70;;
13795;SDS011;40911;51.552;9.874;2023-05-07T15:04:21;9.95;;;8.95;;
13795;SDS011;40911;51.552;9.874;2023-05-07T15:06:42;10.70;;;9.60;;
13795;SDS011;40911;51.552;9.874;2023-05-07T15:11:26;9.63;;;8.40;;
13795;SDS011;40911;51.552;9.874;2023-05-07T15:13:50;10.50;;;8.90;;
13795;SDS011;40911;51.552;9.874;2023-05-07T15:16:11;9.43;;;8.45;;
13795;SDS011;40911;51.552;9.874;2023-05-07T15:18:33;9.57;;;8.68;;
13795;SDS011;40911;51.552;9.874;2023-05-07T15:23:17;8.52;;;7.82;;
13795;SDS011;40911;51.552;9.874;2023-05-07T15:25:38;8.38;;;7.57;;
13795;SDS011;40911;51.552;9.874;2023-05-07T15:28:00;9.50;;;8.60;;
13795;SDS011;40911;51.552;9.874;2023-05-07T15:30:23;9.07;;;8.18;;
13795;SDS011;40911;51.552;9.874;2023-05-07T15:32:45;9.00;;;8.20;;
13795;SDS011;40911;51.552;9.874;2023-05-07T15:35:08;8.63;;;7.68;;
13795;SDS011;40911;51.552;9.874;2023-05-07T15:37:30;10.63;;;7.93;;
13795;SDS011;40911;51.552;9.874;2023-05-07T15:39:52;8.68;;;7.78;;
13795;SDS011;40911;51.552;9.874;2023-05-07T15:42:14;8.55;;;7.63;;
13795;SDS011;40911;51.552;9.874;2023-05-07T15:46:59;8.85;;;7.95;;
13795;SDS011;40911;51.552;9.874;2023-05-07T15:49:21;9.00;;;7.43;;
13795;SDS011;40911;51.552;9.874;2023-05-07T15:51:42;8.90;;;7.35;;
13795;SDS011;40911;51.552;9.874;2023-05-07T15:56:26;8.65;;;7.50;;
13795;SDS011;40911;51.552;9.874;2023-05-07T16:01:09;8.35;;;7.55;;
13795;SDS011;40911;51.552;9.874;2023-05-07T16:05:54;8.77;;;7.97;;
13795;SDS011;40911;51.552;9.874;2023-05-07T16:08:17;8.82;;;7.60;;
13795;SDS011;40911;51.552;9.874;2023-05-07T16:13:00;8.55;;;7.70;;
13795;SDS011;40911;51.552;9.874;2023-05-07T16:17:44;8.95;;;8.05;;
13795;SDS011;40911;51.552;9.874;2023-05-07T16:20:08;9.07;;;8.15;;
13795;SDS011;40911;51.552;9.874;2023-05-07T16:22:32;8.75;;;7.85;;